sensor_id;sensor_type;location;lat;lon;timestamp;P1;durP1;ratioP1;P2;durP2;ratioP2
2620;SDS011;1320;48.128;11.592;2024-03-02T00:02:07;16.27;;;10.47;;
2620;SDS011;1320;48.128;11.592;2024-03-02T00:04:33;15.80;;;9.00;;
2620;SDS011;1320;48.128;11.592;2024-03-02T00:07:00;13.77;;;9.67;;
2620;SDS011;1320;48.128;11.592;2024-03-02T00:09:26;14.00;;;10.43;;
2620;SDS011;1320;48.128;11.592;2024-03-02T00:11:52;14.20;;;10.80;;
2620;SDS011;1320;48.128;11.592;2024-03-02T00:14:18;15.37;;;9.23;;
2620;SDS011;1320;48.128;11.592;2024-03-02T00:16:44;12.20;;;9.17;;
2620;SDS011;1320;48.128;11.592;2024-03-02T00:19:10;15.20;;;10.47;;
2620;SDS011;1320;48.128;11.592;2024-03-02T00:21:36;12.03;;;8.80;;
2620;SDS011;1320;48.128;11.592;2024-03-02T00:24:07;12.93;;;9.63;;
2620;SDS011;1320;48.128;11.592;2024-03-02T00:26:40;16.63;;;10.40;;
2620;SDS011;1320;48.128;11.592;2024-03-02T00:29:09;14.30;;;10.33;;
2620;SDS011;1320;48.128;11.592;2024-03-02T00:31:38;15.50;;;9.90;;
2620;SDS011;1320;48.128;11.592;2024-03-02T00:34:05;14.60;;;10.30;;
2620;SDS011;1320;48.128;11.592;2024-03-02T00:36:31;14.70;;;10.10;;
2620;SDS011;1320;48.128;11.592;2024-03-02T00:38:57;15.37;;;9.50;;
2620;SDS011;1320;48.128;11.592;2024-03-02T00:41:24;12.77;;;8.90;;
2620;SDS011;1320;48.128;11.592;2024-03-02T00:46:18;14.03;;;9.83;;
2620;SDS011;1320;48.128;11.592;2024-03-02T00:48:54;12.83;;;9.83;;
2620;SDS011;1320;48.128;11.592;2024-03-02T00:51:21;16.20;;;10.83;;
2620;SDS011;1320;48.128;11.592;2024-03-02T00:53:48;13.13;;;8.80;;
2620;SDS011;1320;48.128;11.592;2024-03-02T00:56:14;14.33;;;9.73;;
2620;SDS011;1320;48.128;11.592;2024-03-02T00:58:40;15.73;;;10.43;;
2620;SDS011;1320;48.128;11.592;2024-03-02T01:01:06;17.70;;;12.00;;
2620;SDS011;1320;48.128;11.592;2024-03-02T01:03:33;14.60;;;9.93;;
2620;SDS011;1320;48.128;11.592;2024-03-02T01:05:59;13.37;;;9.90;;
2620;SDS011;1320;48.128;11.592;2024-03-02T01:08:25;13.30;;;9.03;;
2620;SDS011;1320;48.128;11.592;2024-03-02T01:10:51;16.70;;;10.80;;
2620;SDS011;1320;48.128;11.592;2024-03-02T01:13:17;15.53;;;10.10;;
2620;SDS011;1320;48.128;11.592;2024-03-02T01:15:43;14.40;;;9.23;;
2620;SDS011;1320;48.128;11.592;2024-03-02T01:18:09;13.40;;;9.57;;
2620;SDS011;1320;48.128;11.592;2024-03-02T01:20:35;13.47;;;9.97;;
2620;SDS011;1320;48.128;11.592;2024-03-02T01:23:01;15.00;;;9.83;;
2620;SDS011;1320;48.128;11.592;2024-03-02T01:25:28;15.47;;;9.33;;
2620;SDS011;1320;48.128;11.592;2024-03-02T01:27:54;12.80;;;9.93;;
2620;SDS011;1320;48.128;11.592;2024-03-02T01:30:20;15.30;;;10.07;;
2620;SDS011;1320;48.128;11.592;2024-03-02T01:32:46;13.20;;;9.40;;
2620;SDS011;1320;48.128;11.592;2024-03-02T01:35:12;13.20;;;9.40;;
2620;SDS011;1320;48.128;11.592;2024-03-02T01:37:39;12.63;;;9.33;;
2620;SDS011;1320;48.128;11.592;2024-03-02T01:40:06;11.20;;;7.53;;
2620;SDS011;1320;48.128;11.592;2024-03-02T01:42:37;13.77;;;9.23;;
2620;SDS011;1320;48.128;11.592;2024-03-02T01:45:06;13.20;;;10.33;;
2620;SDS011;1320;48.128;11.592;2024-03-02T01:47:32;13.13;;;9.80;;
2620;SDS011;1320;48.128;11.592;2024-03-02T01:49:59;13.23;;;9.03;;
2620;SDS011;1320;48.128;11.592;2024-03-02T01:52:25;12.97;;;9.03;;
2620;SDS011;1320;48.128;11.592;2024-03-02T01:54:51;12.43;;;8.97;;
2620;SDS011;1320;48.128;11.592;2024-03-02T01:57:17;14.10;;;8.67;;
2620;SDS011;1320;48.128;11.592;2024-03-02T01:59:43;12.83;;;8.70;;
2620;SDS011;1320;48.128;11.592;2024-03-02T02:02:10;13.00;;;8.43;;
2620;SDS011;1320;48.128;11.592;2024-03-02T02:04:36;13.47;;;8.20;;
2620;SDS011;1320;48.128;11.592;2024-03-02T02:07:02;10.63;;;7.80;;
2620;SDS011;1320;48.128;11.592;2024-03-02T02:09:28;11.73;;;7.90;;
2620;SDS011;1320;48.128;11.592;2024-03-02T02:11:54;12.40;;;8.70;;
2620;SDS011;1320;48.128;11.592;2024-03-02T02:14:20;11.40;;;7.50;;
2620;SDS011;1320;48.128;11.592;2024-03-02T02:16:46;14.87;;;9.33;;
2620;SDS011;1320;48.128;11.592;2024-03-02T02:19:12;13.73;;;8.67;;
2620;SDS011;1320;48.128;11.592;2024-03-02T02:21:41;11.73;;;8.90;;
2620;SDS011;1320;48.128;11.592;2024-03-02T02:24:07;16.37;;;10.17;;
2620;SDS011;1320;48.128;11.592;2024-03-02T02:26:34;13.83;;;9.47;;
2620;SDS011;1320;48.128;11.592;2024-03-02T02:29:00;13.50;;;8.80;;
2620;SDS011;1320;48.128;11.592;2024-03-02T02:31:26;13.90;;;9.57;;
2620;SDS011;1320;48.128;11.592;2024-03-02T02:33:52;15.10;;;10.63;;
2620;SDS011;1320;48.128;11.592;2024-03-02T02:36:18;14.90;;;9.83;;
2620;SDS011;1320;48.128;11.592;2024-03-02T02:38:44;14.87;;;10.33;;
2620;SDS011;1320;48.128;11.592;2024-03-02T02:41:12;14.90;;;9.67;;
2620;SDS011;1320;48.128;11.592;2024-03-02T02:43:38;15.53;;;10.93;;
2620;SDS011;1320;48.128;11.592;2024-03-02T02:46:05;15.30;;;11.07;;
2620;SDS011;1320;48.128;11.592;2024-03-02T02:48:31;13.30;;;9.10;;
2620;SDS011;1320;48.128;11.592;2024-03-02T02:50:57;12.67;;;9.10;;
2620;SDS011;1320;48.128;11.592;2024-03-02T02:53:23;13.83;;;9.17;;
2620;SDS011;1320;48.128;11.592;2024-03-02T02:55:49;12.33;;;8.20;;
2620;SDS011;1320;48.128;11.592;2024-03-02T02:58:15;12.30;;;8.80;;
2620;SDS011;1320;48.128;11.592;2024-03-02T03:00:41;13.53;;;8.60;;
2620;SDS011;1320;48.128;11.592;2024-03-02T03:03:07;11.80;;;8.53;;
2620;SDS011;1320;48.128;11.592;2024-03-02T03:05:33;13.33;;;9.20;;
2620;SDS011;1320;48.128;11.592;2024-03-02T03:07:59;13.50;;;9.23;;
2620;SDS011;1320;48.128;11.592;2024-03-02T03:10:25;11.70;;;8.57;;
2620;SDS011;1320;48.128;11.592;2024-03-02T03:12:52;13.37;;;8.80;;
2620;SDS011;1320;48.128;11.592;2024-03-02T03:15:21;12.13;;;8.30;;
2620;SDS011;1320;48.128;11.592;2024-03-02T03:17:47;13.93;;;9.87;;
2620;SDS011;1320;48.128;11.592;2024-03-02T03:20:13;12.73;;;9.30;;
2620;SDS011;1320;48.128;11.592;2024-03-02T03:22:40;13.17;;;8.90;;
2620;SDS011;1320;48.128;11.592;2024-03-02T03:25:06;12.13;;;8.70;;
2620;SDS011;1320;48.128;11.592;2024-03-02T03:27:36;14.47;;;9.97;;
2620;SDS011;1320;48.128;11.592;2024-03-02T03:30:02;14.07;;;8.90;;
2620;SDS011;1320;48.128;11.592;2024-03-02T03:32:28;14.67;;;10.50;;
2620;SDS011;1320;48.128;11.592;2024-03-02T03:34:54;13.10;;;8.90;;
2620;SDS011;1320;48.128;11.592;2024-03-02T03:37:20;14.43;;;9.87;;
2620;SDS011;1320;48.128;11.592;2024-03-02T03:39:46;14.73;;;9.97;;
2620;SDS011;1320;48.128;11.592;2024-03-02T03:42:12;12.10;;;9.27;;
2620;SDS011;1320;48.128;11.592;2024-03-02T03:44:38;12.10;;;9.27;;
2620;SDS011;1320;48.128;11.592;2024-03-02T03:47:05;16.00;;;11.27;;
2620;SDS011;1320;48.128;11.592;2024-03-02T03:49:31;14.50;;;10.63;;
2620;SDS011;1320;48.128;11.592;2024-03-02T03:51:57;14.63;;;10.83;;
2620;SDS011;1320;48.128;11.592;2024-03-02T03:54:23;15.60;;;11.37;;
2620;SDS011;1320;48.128;11.592;2024-03-02T03:56:49;14.23;;;11.17;;
2620;SDS011;1320;48.128;11.592;2024-03-02T03:59:15;14.47;;;10.23;;
2620;SDS011;1320;48.128;11.592;2024-03-02T04:01:41;16.43;;;11.83;;
2620;SDS011;1320;48.128;11.592;2024-03-02T04:04:07;17.27;;;12.80;;
2620;SDS011;1320;48.128;11.592;2024-03-02T04:06:34;18.73;;;12.30;;
2620;SDS011;1320;48.128;11.592;2024-03-02T04:09:00;16.03;;;11.90;;
2620;SDS011;1320;48.128;11.592;2024-03-02T04:11:26;15.10;;;11.33;;
2620;SDS011;1320;48.128;11.592;2024-03-02T04:13:52;17.87;;;12.40;;
2620;SDS011;1320;48.128;11.592;2024-03-02T04:16:18;14.67;;;11.23;;
2620;SDS011;1320;48.128;11.592;2024-03-02T04:18:44;17.30;;;12.50;;
2620;SDS011;1320;48.128;11.592;2024-03-02T04:21:10;15.57;;;12.20;;
2620;SDS011;1320;48.128;11.592;2024-03-02T04:23:36;16.10;;;12.30;;
2620;SDS011;1320;48.128;11.592;2024-03-02T04:26:02;17.20;;;11.87;;
2620;SDS011;1320;48.128;11.592;2024-03-02T04:28:29;13.37;;;10.10;;
2620;SDS011;1320;48.128;11.592;2024-03-02T04:30:55;17.23;;;12.00;;
2620;SDS011;1320;48.128;11.592;2024-03-02T04:33:21;15.60;;;11.33;;
2620;SDS011;1320;48.128;11.592;2024-03-02T04:35:47;18.47;;;12.80;;
2620;SDS011;1320;48.128;11.592;2024-03-02T04:38:13;14.60;;;10.33;;
2620;SDS011;1320;48.128;11.592;2024-03-02T04:40:39;17.27;;;11.23;;
2620;SDS011;1320;48.128;11.592;2024-03-02T04:43:05;17.50;;;11.80;;
2620;SDS011;1320;48.128;11.592;2024-03-02T04:45:31;16.87;;;11.87;;
2620;SDS011;1320;48.128;11.592;2024-03-02T04:47:57;15.77;;;11.40;;
2620;SDS011;1320;48.128;11.592;2024-03-02T04:50:23;16.30;;;11.20;;
2620;SDS011;1320;48.128;11.592;2024-03-02T04:52:49;16.20;;;11.30;;
2620;SDS011;1320;48.128;11.592;2024-03-02T04:55:15;15.80;;;10.93;;
2620;SDS011;1320;48.128;11.592;2024-03-02T04:57:41;18.70;;;12.37;;
2620;SDS011;1320;48.128;11.592;2024-03-02T05:00:08;15.83;;;11.30;;
2620;SDS011;1320;48.128;11.592;2024-03-02T05:02:34;16.83;;;11.17;;
2620;SDS011;1320;48.128;11.592;2024-03-02T05:05:00;18.23;;;11.70;;
2620;SDS011;1320;48.128;11.592;2024-03-02T05:07:27;14.83;;;11.00;;
2620;SDS011;1320;48.128;11.592;2024-03-02T05:09:53;17.60;;;12.23;;
2620;SDS011;1320;48.128;11.592;2024-03-02T05:12:19;15.70;;;10.60;;
2620;SDS011;1320;48.128;11.592;2024-03-02T05:14:48;17.13;;;11.77;;
2620;SDS011;1320;48.128;11.592;2024-03-02T05:17:14;17.83;;;12.97;;
2620;SDS011;1320;48.128;11.592;2024-03-02T05:19:40;19.50;;;13.63;;
2620;SDS011;1320;48.128;11.592;2024-03-02T05:22:06;18.63;;;12.83;;
2620;SDS011;1320;48.128;11.592;2024-03-02T05:24:32;15.60;;;11.67;;
2620;SDS011;1320;48.128;11.592;2024-03-02T05:26:59;15.83;;;11.63;;
2620;SDS011;1320;48.128;11.592;2024-03-02T05:29:25;17.87;;;12.20;;
2620;SDS011;1320;48.128;11.592;2024-03-02T05:31:51;16.37;;;12.33;;
2620;SDS011;1320;48.128;11.592;2024-03-02T05:34:17;16.40;;;12.00;;
2620;SDS011;1320;48.128;11.592;2024-03-02T05:36:43;16.60;;;11.17;;
2620;SDS011;1320;48.128;11.592;2024-03-02T05:39:09;15.50;;;10.60;;
2620;SDS011;1320;48.128;11.592;2024-03-02T05:41:35;17.93;;;13.70;;
2620;SDS011;1320;48.128;11.592;2024-03-02T05:44:03;16.33;;;11.87;;
2620;SDS011;1320;48.128;11.592;2024-03-02T05:46:29;19.43;;;12.70;;
2620;SDS011;1320;48.128;11.592;2024-03-02T05:48:55;19.90;;;14.03;;
2620;SDS011;1320;48.128;11.592;2024-03-02T05:51:21;14.47;;;11.17;;
2620;SDS011;1320;48.128;11.592;2024-03-02T05:53:47;16.20;;;12.60;;
2620;SDS011;1320;48.128;11.592;2024-03-02T05:56:13;17.07;;;11.67;;
2620;SDS011;1320;48.128;11.592;2024-03-02T05:58:40;19.27;;;12.50;;
2620;SDS011;1320;48.128;11.592;2024-03-02T06:01:25;16.50;;;12.33;;
2620;SDS011;1320;48.128;11.592;2024-03-02T06:03:56;20.13;;;12.87;;
2620;SDS011;1320;48.128;11.592;2024-03-02T06:06:23;21.63;;;17.00;;
2620;SDS011;1320;48.128;11.592;2024-03-02T06:08:50;17.53;;;12.73;;
2620;SDS011;1320;48.128;11.592;2024-03-02T06:11:16;17.77;;;12.03;;
2620;SDS011;1320;48.128;11.592;2024-03-02T06:13:42;19.37;;;11.43;;
2620;SDS011;1320;48.128;11.592;2024-03-02T06:16:08;17.47;;;12.13;;
2620;SDS011;1320;48.128;11.592;2024-03-02T06:18:34;15.60;;;11.13;;
2620;SDS011;1320;48.128;11.592;2024-03-02T06:21:00;19.50;;;12.90;;
2620;SDS011;1320;48.128;11.592;2024-03-02T06:23:27;22.07;;;12.57;;
2620;SDS011;1320;48.128;11.592;2024-03-02T06:25:53;15.67;;;11.30;;
2620;SDS011;1320;48.128;11.592;2024-03-02T06:28:19;19.60;;;12.70;;
2620;SDS011;1320;48.128;11.592;2024-03-02T06:30:47;16.37;;;12.80;;
2620;SDS011;1320;48.128;11.592;2024-03-02T06:33:14;19.03;;;13.17;;
2620;SDS011;1320;48.128;11.592;2024-03-02T06:35:40;18.80;;;13.63;;
2620;SDS011;1320;48.128;11.592;2024-03-02T06:38:06;19.57;;;14.10;;
2620;SDS011;1320;48.128;11.592;2024-03-02T06:40:32;22.00;;;14.80;;
2620;SDS011;1320;48.128;11.592;2024-03-02T06:42:59;19.77;;;13.93;;
2620;SDS011;1320;48.128;11.592;2024-03-02T06:45:25;17.43;;;12.77;;
2620;SDS011;1320;48.128;11.592;2024-03-02T06:47:51;20.70;;;14.40;;
2620;SDS011;1320;48.128;11.592;2024-03-02T06:50:17;18.33;;;13.77;;
2620;SDS011;1320;48.128;11.592;2024-03-02T06:52:43;18.63;;;13.57;;
2620;SDS011;1320;48.128;11.592;2024-03-02T06:55:09;18.53;;;13.50;;
2620;SDS011;1320;48.128;11.592;2024-03-02T06:57:35;22.00;;;14.53;;
2620;SDS011;1320;48.128;11.592;2024-03-02T07:00:01;19.30;;;14.40;;
2620;SDS011;1320;48.128;11.592;2024-03-02T07:02:30;20.47;;;13.70;;
2620;SDS011;1320;48.128;11.592;2024-03-02T07:04:56;17.90;;;14.17;;
2620;SDS011;1320;48.128;11.592;2024-03-02T07:07:22;22.63;;;15.93;;
2620;SDS011;1320;48.128;11.592;2024-03-02T07:09:48;23.87;;;18.20;;
2620;SDS011;1320;48.128;11.592;2024-03-02T07:12:14;19.20;;;15.23;;
2620;SDS011;1320;48.128;11.592;2024-03-02T07:14:40;23.07;;;16.80;;
2620;SDS011;1320;48.128;11.592;2024-03-02T07:17:25;21.70;;;15.97;;
2620;SDS011;1320;48.128;11.592;2024-03-02T07:19:51;21.97;;;16.03;;
2620;SDS011;1320;48.128;11.592;2024-03-02T07:22:17;26.00;;;17.77;;
2620;SDS011;1320;48.128;11.592;2024-03-02T07:24:43;19.70;;;14.63;;
2620;SDS011;1320;48.128;11.592;2024-03-02T07:27:11;26.63;;;16.63;;
2620;SDS011;1320;48.128;11.592;2024-03-02T07:29:37;24.50;;;16.30;;
2620;SDS011;1320;48.128;11.592;2024-03-02T07:32:04;23.27;;;16.13;;
2620;SDS011;1320;48.128;11.592;2024-03-02T07:34:30;22.23;;;15.70;;
2620;SDS011;1320;48.128;11.592;2024-03-02T07:36:56;22.20;;;16.67;;
2620;SDS011;1320;48.128;11.592;2024-03-02T07:39:22;25.30;;;17.27;;
2620;SDS011;1320;48.128;11.592;2024-03-02T07:41:49;25.83;;;16.47;;
2620;SDS011;1320;48.128;11.592;2024-03-02T07:44:15;23.10;;;15.50;;
2620;SDS011;1320;48.128;11.592;2024-03-02T07:46:41;21.67;;;14.20;;
2620;SDS011;1320;48.128;11.592;2024-03-02T07:49:08;23.83;;;15.87;;
2620;SDS011;1320;48.128;11.592;2024-03-02T07:51:34;26.47;;;16.40;;
2620;SDS011;1320;48.128;11.592;2024-03-02T07:54:00;22.90;;;15.30;;
2620;SDS011;1320;48.128;11.592;2024-03-02T07:56:26;22.23;;;15.10;;
2620;SDS011;1320;48.128;11.592;2024-03-02T07:58:52;19.60;;;15.23;;
2620;SDS011;1320;48.128;11.592;2024-03-02T08:01:18;20.83;;;13.97;;
2620;SDS011;1320;48.128;11.592;2024-03-02T08:03:44;21.60;;;14.47;;
2620;SDS011;1320;48.128;11.592;2024-03-02T08:06:15;21.90;;;14.60;;
2620;SDS011;1320;48.128;11.592;2024-03-02T08:08:41;18.07;;;12.80;;
2620;SDS011;1320;48.128;11.592;2024-03-02T08:11:07;18.13;;;13.70;;
2620;SDS011;1320;48.128;11.592;2024-03-02T08:13:33;21.57;;;13.73;;
2620;SDS011;1320;48.128;11.592;2024-03-02T08:15:59;16.77;;;12.67;;
2620;SDS011;1320;48.128;11.592;2024-03-02T08:18:25;15.13;;;11.23;;
2620;SDS011;1320;48.128;11.592;2024-03-02T08:20:51;15.33;;;11.97;;
2620;SDS011;1320;48.128;11.592;2024-03-02T08:23:17;15.83;;;10.93;;
2620;SDS011;1320;48.128;11.592;2024-03-02T08:25:45;19.00;;;11.63;;
2620;SDS011;1320;48.128;11.592;2024-03-02T08:28:13;13.60;;;9.53;;
2620;SDS011;1320;48.128;11.592;2024-03-02T08:30:38;13.50;;;10.37;;
2620;SDS011;1320;48.128;11.592;2024-03-02T08:33:07;15.30;;;12.60;;
2620;SDS011;1320;48.128;11.592;2024-03-02T08:35:33;13.33;;;11.13;;
2620;SDS011;1320;48.128;11.592;2024-03-02T08:38:03;14.17;;;10.17;;
2620;SDS011;1320;48.128;11.592;2024-03-02T08:40:29;16.40;;;11.10;;
2620;SDS011;1320;48.128;11.592;2024-03-02T08:42:55;13.27;;;10.50;;
2620;SDS011;1320;48.128;11.592;2024-03-02T08:45:21;14.73;;;10.40;;
2620;SDS011;1320;48.128;11.592;2024-03-02T08:47:47;17.50;;;13.07;;
2620;SDS011;1320;48.128;11.592;2024-03-02T08:50:13;14.80;;;12.33;;
2620;SDS011;1320;48.128;11.592;2024-03-02T08:52:39;16.77;;;12.90;;
2620;SDS011;1320;48.128;11.592;2024-03-02T08:55:05;15.87;;;10.93;;
2620;SDS011;1320;48.128;11.592;2024-03-02T08:57:32;16.23;;;13.20;;
2620;SDS011;1320;48.128;11.592;2024-03-02T09:00:01;18.90;;;11.83;;
2620;SDS011;1320;48.128;11.592;2024-03-02T09:02:28;13.10;;;10.97;;
2620;SDS011;1320;48.128;11.592;2024-03-02T09:04:53;15.90;;;12.10;;
2620;SDS011;1320;48.128;11.592;2024-03-02T09:07:19;14.93;;;11.80;;
2620;SDS011;1320;48.128;11.592;2024-03-02T09:09:45;13.80;;;11.20;;
2620;SDS011;1320;48.128;11.592;2024-03-02T09:12:10;16.20;;;11.80;;
2620;SDS011;1320;48.128;11.592;2024-03-02T09:14:36;15.00;;;11.97;;
2620;SDS011;1320;48.128;11.592;2024-03-02T09:17:02;14.47;;;10.50;;
2620;SDS011;1320;48.128;11.592;2024-03-02T09:19:28;14.00;;;11.17;;
2620;SDS011;1320;48.128;11.592;2024-03-02T09:21:54;13.40;;;10.30;;
2620;SDS011;1320;48.128;11.592;2024-03-02T09:24:22;16.70;;;11.87;;
2620;SDS011;1320;48.128;11.592;2024-03-02T09:26:47;13.37;;;9.67;;
2620;SDS011;1320;48.128;11.592;2024-03-02T09:29:13;12.20;;;9.63;;
2620;SDS011;1320;48.128;11.592;2024-03-02T09:31:40;14.27;;;10.10;;
2620;SDS011;1320;48.128;11.592;2024-03-02T09:34:06;11.20;;;8.90;;
2620;SDS011;1320;48.128;11.592;2024-03-02T09:36:32;12.67;;;10.07;;
2620;SDS011;1320;48.128;11.592;2024-03-02T09:38:59;12.47;;;9.03;;
2620;SDS011;1320;48.128;11.592;2024-03-02T09:41:25;11.50;;;9.47;;
2620;SDS011;1320;48.128;11.592;2024-03-02T09:43:52;11.07;;;8.33;;
2620;SDS011;1320;48.128;11.592;2024-03-02T09:46:19;11.57;;;9.40;;
2620;SDS011;1320;48.128;11.592;2024-03-02T09:48:46;11.13;;;9.10;;
2620;SDS011;1320;48.128;11.592;2024-03-02T09:51:13;11.97;;;7.87;;
2620;SDS011;1320;48.128;11.592;2024-03-02T09:53:40;12.00;;;9.23;;
2620;SDS011;1320;48.128;11.592;2024-03-02T09:56:06;10.33;;;9.00;;
2620;SDS011;1320;48.128;11.592;2024-03-02T09:58:32;11.40;;;8.50;;
2620;SDS011;1320;48.128;11.592;2024-03-02T10:00:58;10.10;;;7.83;;
2620;SDS011;1320;48.128;11.592;2024-03-02T10:03:23;14.73;;;9.90;;
2620;SDS011;1320;48.128;11.592;2024-03-02T10:05:49;12.00;;;8.77;;
2620;SDS011;1320;48.128;11.592;2024-03-02T10:08:15;13.20;;;9.57;;
2620;SDS011;1320;48.128;11.592;2024-03-02T10:10:41;14.90;;;9.40;;
2620;SDS011;1320;48.128;11.592;2024-03-02T10:13:08;12.13;;;8.23;;
2620;SDS011;1320;48.128;11.592;2024-03-02T10:15:35;11.80;;;8.03;;
2620;SDS011;1320;48.128;11.592;2024-03-02T10:18:03;11.67;;;8.57;;
2620;SDS011;1320;48.128;11.592;2024-03-02T10:20:29;11.43;;;7.73;;
2620;SDS011;1320;48.128;11.592;2024-03-02T10:22:55;13.47;;;7.60;;
2620;SDS011;1320;48.128;11.592;2024-03-02T10:25:34;10.93;;;7.63;;
2620;SDS011;1320;48.128;11.592;2024-03-02T10:28:00;11.43;;;7.90;;
2620;SDS011;1320;48.128;11.592;2024-03-02T10:30:26;11.17;;;8.17;;
2620;SDS011;1320;48.128;11.592;2024-03-02T10:32:53;11.43;;;7.70;;
2620;SDS011;1320;48.128;11.592;2024-03-02T10:35:20;12.33;;;7.07;;
2620;SDS011;1320;48.128;11.592;2024-03-02T10:37:47;10.70;;;6.90;;
2620;SDS011;1320;48.128;11.592;2024-03-02T10:40:14;12.73;;;7.63;;
2620;SDS011;1320;48.128;11.592;2024-03-02T10:42:41;11.47;;;8.27;;
2620;SDS011;1320;48.128;11.592;2024-03-02T10:45:08;11.20;;;7.30;;
2620;SDS011;1320;48.128;11.592;2024-03-02T10:47:35;11.40;;;7.60;;
2620;SDS011;1320;48.128;11.592;2024-03-02T10:50:03;12.10;;;8.60;;
2620;SDS011;1320;48.128;11.592;2024-03-02T10:52:37;13.40;;;10.60;;
2620;SDS011;1320;48.128;11.592;2024-03-02T10:55:04;17.10;;;12.10;;
2620;SDS011;1320;48.128;11.592;2024-03-02T11:00:20;17.00;;;11.87;;
2620;SDS011;1320;48.128;11.592;2024-03-02T11:02:54;17.87;;;12.00;;
2620;SDS011;1320;48.128;11.592;2024-03-02T11:05:24;15.63;;;12.60;;
2620;SDS011;1320;48.128;11.592;2024-03-02T11:07:56;15.20;;;11.50;;
2620;SDS011;1320;48.128;11.592;2024-03-02T11:10:27;18.13;;;11.33;;
2620;SDS011;1320;48.128;11.592;2024-03-02T11:12:59;17.67;;;14.10;;
2620;SDS011;1320;48.128;11.592;2024-03-02T11:15:27;18.03;;;11.97;;
2620;SDS011;1320;48.128;11.592;2024-03-02T11:17:53;16.77;;;11.73;;
2620;SDS011;1320;48.128;11.592;2024-03-02T11:20:19;17.10;;;11.60;;
2620;SDS011;1320;48.128;11.592;2024-03-02T11:22:45;18.03;;;11.43;;
2620;SDS011;1320;48.128;11.592;2024-03-02T11:25:24;16.27;;;9.63;;
2620;SDS011;1320;48.128;11.592;2024-03-02T11:33:01;17.83;;;11.20;;
2620;SDS011;1320;48.128;11.592;2024-03-02T11:35:32;15.17;;;10.00;;
2620;SDS011;1320;48.128;11.592;2024-03-02T11:37:58;17.43;;;11.07;;
2620;SDS011;1320;48.128;11.592;2024-03-02T11:40:24;15.63;;;9.03;;
2620;SDS011;1320;48.128;11.592;2024-03-02T11:42:51;13.77;;;10.50;;
2620;SDS011;1320;48.128;11.592;2024-03-02T11:45:17;13.53;;;9.97;;
2620;SDS011;1320;48.128;11.592;2024-03-02T11:47:51;16.57;;;10.77;;
2620;SDS011;1320;48.128;11.592;2024-03-02T11:50:28;13.07;;;9.10;;
2620;SDS011;1320;48.128;11.592;2024-03-02T11:52:55;13.43;;;9.67;;
2620;SDS011;1320;48.128;11.592;2024-03-02T11:55:23;15.37;;;9.97;;
2620;SDS011;1320;48.128;11.592;2024-03-02T11:57:50;13.77;;;9.20;;
2620;SDS011;1320;48.128;11.592;2024-03-02T12:00:18;11.43;;;8.90;;
2620;SDS011;1320;48.128;11.592;2024-03-02T12:02:45;10.23;;;8.00;;
2620;SDS011;1320;48.128;11.592;2024-03-02T12:05:14;13.73;;;10.00;;
2620;SDS011;1320;48.128;11.592;2024-03-02T12:07:42;17.10;;;9.80;;
2620;SDS011;1320;48.128;11.592;2024-03-02T12:10:08;12.67;;;8.77;;
2620;SDS011;1320;48.128;11.592;2024-03-02T12:12:34;13.57;;;10.23;;
2620;SDS011;1320;48.128;11.592;2024-03-02T12:15:00;18.53;;;11.87;;
2620;SDS011;1320;48.128;11.592;2024-03-02T12:17:26;12.57;;;8.40;;
2620;SDS011;1320;48.128;11.592;2024-03-02T12:19:52;17.90;;;11.20;;
2620;SDS011;1320;48.128;11.592;2024-03-02T12:22:18;15.83;;;10.97;;
2620;SDS011;1320;48.128;11.592;2024-03-02T12:24:45;13.67;;;10.13;;
2620;SDS011;1320;48.128;11.592;2024-03-02T12:27:11;15.13;;;10.50;;
2620;SDS011;1320;48.128;11.592;2024-03-02T12:29:38;14.60;;;10.80;;
2620;SDS011;1320;48.128;11.592;2024-03-02T12:32:04;17.53;;;11.60;;
2620;SDS011;1320;48.128;11.592;2024-03-02T12:34:31;15.57;;;11.00;;
2620;SDS011;1320;48.128;11.592;2024-03-02T12:36:56;13.80;;;10.67;;
2620;SDS011;1320;48.128;11.592;2024-03-02T12:39:22;14.80;;;10.53;;
2620;SDS011;1320;48.128;11.592;2024-03-02T12:41:48;20.30;;;11.47;;
2620;SDS011;1320;48.128;11.592;2024-03-02T12:44:19;17.47;;;12.83;;
2620;SDS011;1320;48.128;11.592;2024-03-02T12:46:45;21.00;;;14.67;;
2620;SDS011;1320;48.128;11.592;2024-03-02T12:49:12;21.07;;;15.03;;
2620;SDS011;1320;48.128;11.592;2024-03-02T12:51:41;18.97;;;13.00;;
2620;SDS011;1320;48.128;11.592;2024-03-02T12:54:08;14.70;;;9.13;;
2620;SDS011;1320;48.128;11.592;2024-03-02T12:56:34;12.97;;;9.10;;
2620;SDS011;1320;48.128;11.592;2024-03-02T12:59:01;14.00;;;9.33;;
2620;SDS011;1320;48.128;11.592;2024-03-02T13:01:26;11.43;;;8.70;;
2620;SDS011;1320;48.128;11.592;2024-03-02T13:03:52;12.23;;;8.20;;
2620;SDS011;1320;48.128;11.592;2024-03-02T13:06:22;14.73;;;8.87;;
2620;SDS011;1320;48.128;11.592;2024-03-02T13:08:48;13.73;;;9.10;;
2620;SDS011;1320;48.128;11.592;2024-03-02T13:11:15;17.30;;;13.87;;
2620;SDS011;1320;48.128;11.592;2024-03-02T13:13:41;21.33;;;14.50;;
2620;SDS011;1320;48.128;11.592;2024-03-02T13:16:10;20.63;;;15.10;;
2620;SDS011;1320;48.128;11.592;2024-03-02T13:18:40;19.03;;;13.97;;
2620;SDS011;1320;48.128;11.592;2024-03-02T13:21:07;17.90;;;14.20;;
2620;SDS011;1320;48.128;11.592;2024-03-02T13:23:33;19.37;;;14.87;;
2620;SDS011;1320;48.128;11.592;2024-03-02T13:25:59;20.43;;;15.80;;
2620;SDS011;1320;48.128;11.592;2024-03-02T13:28:25;24.13;;;16.60;;
2620;SDS011;1320;48.128;11.592;2024-03-02T13:30:57;20.33;;;14.83;;
2620;SDS011;1320;48.128;11.592;2024-03-02T13:33:23;16.70;;;10.43;;
2620;SDS011;1320;48.128;11.592;2024-03-02T13:35:49;13.40;;;10.03;;
2620;SDS011;1320;48.128;11.592;2024-03-02T13:38:19;14.33;;;10.47;;
2620;SDS011;1320;48.128;11.592;2024-03-02T13:40:49;19.03;;;13.40;;
2620;SDS011;1320;48.128;11.592;2024-03-02T13:43:17;17.10;;;12.70;;
2620;SDS011;1320;48.128;11.592;2024-03-02T13:45:44;15.17;;;12.93;;
2620;SDS011;1320;48.128;11.592;2024-03-02T13:48:10;17.77;;;13.13;;
2620;SDS011;1320;48.128;11.592;2024-03-02T13:50:35;16.73;;;13.00;;
2620;SDS011;1320;48.128;11.592;2024-03-02T13:53:01;17.50;;;13.20;;
2620;SDS011;1320;48.128;11.592;2024-03-02T13:55:28;19.57;;;15.13;;
2620;SDS011;1320;48.128;11.592;2024-03-02T13:57:54;29.23;;;14.43;;
2620;SDS011;1320;48.128;11.592;2024-03-02T14:00:20;19.43;;;12.90;;
2620;SDS011;1320;48.128;11.592;2024-03-02T14:02:46;20.20;;;13.37;;
2620;SDS011;1320;48.128;11.592;2024-03-02T14:05:12;14.30;;;10.40;;
2620;SDS011;1320;48.128;11.592;2024-03-02T14:07:38;12.87;;;9.10;;
2620;SDS011;1320;48.128;11.592;2024-03-02T14:10:05;15.53;;;10.47;;
2620;SDS011;1320;48.128;11.592;2024-03-02T14:12:31;13.97;;;10.13;;
2620;SDS011;1320;48.128;11.592;2024-03-02T14:14:57;14.30;;;10.67;;
2620;SDS011;1320;48.128;11.592;2024-03-02T14:17:28;12.70;;;9.93;;
2620;SDS011;1320;48.128;11.592;2024-03-02T14:19:56;16.77;;;12.00;;
2620;SDS011;1320;48.128;11.592;2024-03-02T14:22:24;15.83;;;11.80;;
2620;SDS011;1320;48.128;11.592;2024-03-02T14:24:49;17.10;;;12.57;;
2620;SDS011;1320;48.128;11.592;2024-03-02T14:27:15;18.50;;;11.70;;
2620;SDS011;1320;48.128;11.592;2024-03-02T14:29:42;17.00;;;12.50;;
2620;SDS011;1320;48.128;11.592;2024-03-02T14:32:08;18.00;;;13.23;;
2620;SDS011;1320;48.128;11.592;2024-03-02T14:34:34;17.30;;;14.03;;
2620;SDS011;1320;48.128;11.592;2024-03-02T14:37:00;17.70;;;12.97;;
2620;SDS011;1320;48.128;11.592;2024-03-02T14:39:27;19.10;;;12.97;;
2620;SDS011;1320;48.128;11.592;2024-03-02T14:41:52;17.37;;;11.73;;
2620;SDS011;1320;48.128;11.592;2024-03-02T14:44:20;16.50;;;12.40;;
2620;SDS011;1320;48.128;11.592;2024-03-02T14:46:49;17.87;;;10.37;;